Big Piney River (Missouri), Fort Leonard Wood (06930060)

StateMissouriCurrentPotential (353 cfs)
RiverBig Piney RiverFlood - The river is flooding. Obstacles can be treacherous or deadly. The river should be avoided at this stage for casual trips and definitely for the inexperienced. Trips should be attempted only with protective gear and equipment.Flood(none)
Updated2019-11-21 20:00 (1 hour ago)High - The river is high and potentially dangerous, especially for the young and / or inexperienced. Normal stream obstacles are sometimes difficult to navigate. Extended distances can be attempted, but canoe travel may not be advisable.High(none)
Discharge353 cfs (median: 214 cfs)Good - Conditions are ideal for a canoe or kayak. Boats typically will drag on fewer than one-quarter of riffles, if at all, and portages are unnecessary or rare. Normal float lengths can be attempted without a problem.Good(none)
Height2.39 feetLow - River is low but can still be floated. Some riffles are okay but most come with significant dragging and might need a portage. Float lengths should be reduced to accommodate low flow, dragging, and portages.Low(none)
TrendFalling (falling over 24 hours)Poor - River is too low to float comfortably. Most or all riffles will drag or must be portaged and some obstacles (such as slick shelf rock) cause undue problems. Avoid the river at this stage for casual paddling trips.Poor(none)
USGSExternal icon USGS Site for Fort Leonard Wood (06930060)LocationExternal icon Google Maps

Trending Data

Plot Image
ObservationHeightDischargeMaximum
Discharge
Minimum
Discharge
Mean
Discharge
P05P10P20P25P50
(Median)
P75P80P90P95
2019-11-21 20:00 2.39 353 2260 (2004) 128 (2002) 514 133 157 178 214 365 657 1950
2019-11-21 19:00 2.41 360 2260 (2004) 128 (2002) 514 133 157 178 214 365 657 1950
2019-11-21 18:00 2.41 360 2260 (2004) 128 (2002) 514 133 157 178 214 365 657 1950
2019-11-21 17:00 2.40 357 2260 (2004) 128 (2002) 514 133 157 178 214 365 657 1950
2019-11-21 16:00 2.39 353 2260 (2004) 128 (2002) 514 133 157 178 214 365 657 1950
2019-11-21 15:00 2.39 353 2260 (2004) 128 (2002) 514 133 157 178 214 365 657 1950
2019-11-21 14:00 2.38 350 2260 (2004) 128 (2002) 514 133 157 178 214 365 657 1950
2019-11-21 13:00 2.40 357 2260 (2004) 128 (2002) 514 133 157 178 214 365 657 1950
2019-11-21 12:00 2.39 353 2260 (2004) 128 (2002) 514 133 157 178 214 365 657 1950
2019-11-21 11:00 2.42 363 2260 (2004) 128 (2002) 514 133 157 178 214 365 657 1950
2019-11-21 10:00 2.40 357 2260 (2004) 128 (2002) 514 133 157 178 214 365 657 1950
2019-11-21 09:00 2.40 357 2260 (2004) 128 (2002) 514 133 157 178 214 365 657 1950
2019-11-21 08:00 2.40 357 2260 (2004) 128 (2002) 514 133 157 178 214 365 657 1950
2019-11-21 07:00 2.41 360 2260 (2004) 128 (2002) 514 133 157 178 214 365 657 1950
2019-11-21 06:00 2.40 357 2260 (2004) 128 (2002) 514 133 157 178 214 365 657 1950
2019-11-21 05:00 2.42 363 2260 (2004) 128 (2002) 514 133 157 178 214 365 657 1950
2019-11-21 04:00 2.41 360 2260 (2004) 128 (2002) 514 133 157 178 214 365 657 1950
2019-11-21 03:00 2.43 367 2260 (2004) 128 (2002) 514 133 157 178 214 365 657 1950
2019-11-21 02:00 2.40 357 2260 (2004) 128 (2002) 514 133 157 178 214 365 657 1950
2019-11-21 01:00 2.41 360 2260 (2004) 128 (2002) 514 133 157 178 214 365 657 1950
2019-11-21 00:00 2.40 357 2260 (2004) 128 (2002) 514 133 157 178 214 365 657 1950
2019-11-20 23:00 2.38 350 8400 (2004) 128 (2002) 938 133 159 179 218 434 848 3130
2019-11-20 22:00 2.40 357 8400 (2004) 128 (2002) 938 133 159 179 218 434 848 3130
2019-11-20 21:00 2.39 353 8400 (2004) 128 (2002) 938 133 159 179 218 434 848 3130
2019-11-20 20:00 2.40 357 8400 (2004) 128 (2002) 938 133 159 179 218 434 848 3130
2019-11-20 19:00 2.40 357 8400 (2004) 128 (2002) 938 133 159 179 218 434 848 3130
2019-11-20 18:00 2.41 360 8400 (2004) 128 (2002) 938 133 159 179 218 434 848 3130
2019-11-20 17:00 2.43 367 8400 (2004) 128 (2002) 938 133 159 179 218 434 848 3130
2019-11-20 16:00 2.40 357 8400 (2004) 128 (2002) 938 133 159 179 218 434 848 3130
2019-11-20 15:00 2.42 363 8400 (2004) 128 (2002) 938 133 159 179 218 434 848 3130
2019-11-20 14:00 2.42 363 8400 (2004) 128 (2002) 938 133 159 179 218 434 848 3130
2019-11-20 13:00 2.41 360 8400 (2004) 128 (2002) 938 133 159 179 218 434 848 3130
2019-11-20 12:00 2.40 357 8400 (2004) 128 (2002) 938 133 159 179 218 434 848 3130
2019-11-20 11:00 2.45 374 8400 (2004) 128 (2002) 938 133 159 179 218 434 848 3130
2019-11-20 10:00 2.40 357 8400 (2004) 128 (2002) 938 133 159 179 218 434 848 3130
2019-11-20 09:00 2.43 367 8400 (2004) 128 (2002) 938 133 159 179 218 434 848 3130
2019-11-20 08:00 2.41 360 8400 (2004) 128 (2002) 938 133 159 179 218 434 848 3130
2019-11-20 07:00 2.42 363 8400 (2004) 128 (2002) 938 133 159 179 218 434 848 3130
2019-11-20 06:00 2.42 363 8400 (2004) 128 (2002) 938 133 159 179 218 434 848 3130
2019-11-20 05:00 2.42 363 8400 (2004) 128 (2002) 938 133 159 179 218 434 848 3130
2019-11-20 04:00 2.43 367 8400 (2004) 128 (2002) 938 133 159 179 218 434 848 3130
2019-11-20 03:00 2.40 357 8400 (2004) 128 (2002) 938 133 159 179 218 434 848 3130
2019-11-20 02:00 2.44 370 8400 (2004) 128 (2002) 938 133 159 179 218 434 848 3130
2019-11-20 01:00 2.44 370 8400 (2004) 128 (2002) 938 133 159 179 218 434 848 3130
2019-11-20 00:00 2.45 374 8400 (2004) 128 (2002) 938 133 159 179 218 434 848 3130
2019-11-19 23:00 2.46 377 10100 (2004) 130 (2002) 1470 133 161 182 221 547 1060 9550
2019-11-19 22:00 2.43 367 10100 (2004) 130 (2002) 1470 133 161 182 221 547 1060 9550
2019-11-19 21:00 2.44 370 10100 (2004) 130 (2002) 1470 133 161 182 221 547 1060 9550
2019-11-19 20:00 2.46 377 10100 (2004) 130 (2002) 1470 133 161 182 221 547 1060 9550
2019-11-19 19:00 2.46 377 10100 (2004) 130 (2002) 1470 133 161 182 221 547 1060 9550
2019-11-19 18:00 2.45 374 10100 (2004) 130 (2002) 1470 133 161 182 221 547 1060 9550
2019-11-19 17:00 2.43 367 10100 (2004) 130 (2002) 1470 133 161 182 221 547 1060 9550
2019-11-19 16:00 2.46 377 10100 (2004) 130 (2002) 1470 133 161 182 221 547 1060 9550
2019-11-19 15:00 2.45 374 10100 (2004) 130 (2002) 1470 133 161 182 221 547 1060 9550
2019-11-19 14:00 2.46 377 10100 (2004) 130 (2002) 1470 133 161 182 221 547 1060 9550
2019-11-19 13:00 2.46 377 10100 (2004) 130 (2002) 1470 133 161 182 221 547 1060 9550
2019-11-19 12:00 2.46 377 10100 (2004) 130 (2002) 1470 133 161 182 221 547 1060 9550
2019-11-19 11:00 2.45 374 10100 (2004) 130 (2002) 1470 133 161 182 221 547 1060 9550
2019-11-19 10:00 2.46 377 10100 (2004) 130 (2002) 1470 133 161 182 221 547 1060 9550
2019-11-19 09:00 2.49 388 10100 (2004) 130 (2002) 1470 133 161 182 221 547 1060 9550
2019-11-19 08:00 2.46 377 10100 (2004) 130 (2002) 1470 133 161 182 221 547 1060 9550
2019-11-19 07:00 2.46 377 10100 (2004) 130 (2002) 1470 133 161 182 221 547 1060 9550
2019-11-19 06:00 2.48 384 10100 (2004) 130 (2002) 1470 133 161 182 221 547 1060 9550
2019-11-19 05:00 2.46 377 10100 (2004) 130 (2002) 1470 133 161 182 221 547 1060 9550
2019-11-19 04:00 2.48 384 10100 (2004) 130 (2002) 1470 133 161 182 221 547 1060 9550
2019-11-19 03:00 2.47 381 10100 (2004) 130 (2002) 1470 133 161 182 221 547 1060 9550
2019-11-19 02:00 2.48 384 10100 (2004) 130 (2002) 1470 133 161 182 221 547 1060 9550
2019-11-19 01:00 2.44 370 10100 (2004) 130 (2002) 1470 133 161 182 221 547 1060 9550
2019-11-19 00:00 2.46 377 10100 (2004) 130 (2002) 1470 133 161 182 221 547 1060 9550
2019-11-18 23:00 2.48 384 11700 (2016) 129 (2002) 1210 134 162 185 226 752 1060 4460
2019-11-18 22:00 2.48 384 11700 (2016) 129 (2002) 1210 134 162 185 226 752 1060 4460
2019-11-18 21:00 2.46 377 11700 (2016) 129 (2002) 1210 134 162 185 226 752 1060 4460
2019-11-18 20:00 2.50 391 11700 (2016) 129 (2002) 1210 134 162 185 226 752 1060 4460
2019-11-18 19:00 2.48 384 11700 (2016) 129 (2002) 1210 134 162 185 226 752 1060 4460
2019-11-18 18:00 2.47 381 11700 (2016) 129 (2002) 1210 134 162 185 226 752 1060 4460
2019-11-18 17:00 2.50 391 11700 (2016) 129 (2002) 1210 134 162 185 226 752 1060 4460
2019-11-18 16:00 2.46 377 11700 (2016) 129 (2002) 1210 134 162 185 226 752 1060 4460
2019-11-18 15:00 2.46 377 11700 (2016) 129 (2002) 1210 134 162 185 226 752 1060 4460
2019-11-18 14:00 2.50 391 11700 (2016) 129 (2002) 1210 134 162 185 226 752 1060 4460
2019-11-18 13:00 2.46 377 11700 (2016) 129 (2002) 1210 134 162 185 226 752 1060 4460
2019-11-18 12:00 2.51 395 11700 (2016) 129 (2002) 1210 134 162 185 226 752 1060 4460
2019-11-18 11:00 2.47 381 11700 (2016) 129 (2002) 1210 134 162 185 226 752 1060 4460
2019-11-18 10:00 2.50 391 11700 (2016) 129 (2002) 1210 134 162 185 226 752 1060 4460
2019-11-18 09:00 2.49 388 11700 (2016) 129 (2002) 1210 134 162 185 226 752 1060 4460
2019-11-18 08:00 2.51 395 11700 (2016) 129 (2002) 1210 134 162 185 226 752 1060 4460
2019-11-18 07:00 2.49 388 11700 (2016) 129 (2002) 1210 134 162 185 226 752 1060 4460
2019-11-18 06:00 2.51 395 11700 (2016) 129 (2002) 1210 134 162 185 226 752 1060 4460
2019-11-18 05:00 2.48 384 11700 (2016) 129 (2002) 1210 134 162 185 226 752 1060 4460
2019-11-18 04:00 2.52 398 11700 (2016) 129 (2002) 1210 134 162 185 226 752 1060 4460
2019-11-18 03:00 2.49 388 11700 (2016) 129 (2002) 1210 134 162 185 226 752 1060 4460
2019-11-18 02:00 2.51 395 11700 (2016) 129 (2002) 1210 134 162 185 226 752 1060 4460
2019-11-18 01:00 2.50 391 11700 (2016) 129 (2002) 1210 134 162 185 226 752 1060 4460
2019-11-18 00:00 2.53 402 11700 (2016) 129 (2002) 1210 134 162 185 226 752 1060 4460
2019-11-17 23:00 2.50 391 7500 (2010) 129 (2002) 804 134 163 184 228 582 978 2140
2019-11-17 22:00 2.47 381 7500 (2010) 129 (2002) 804 134 163 184 228 582 978 2140
2019-11-17 21:00 2.51 395 7500 (2010) 129 (2002) 804 134 163 184 228 582 978 2140
2019-11-17 20:00 2.53 402 7500 (2010) 129 (2002) 804 134 163 184 228 582 978 2140
2019-11-17 19:00 2.51 395 7500 (2010) 129 (2002) 804 134 163 184 228 582 978 2140
2019-11-17 18:00 2.50 391 7500 (2010) 129 (2002) 804 134 163 184 228 582 978 2140
2019-11-17 17:00 2.56 412 7500 (2010) 129 (2002) 804 134 163 184 228 582 978 2140
2019-11-17 16:00 2.54 405 7500 (2010) 129 (2002) 804 134 163 184 228 582 978 2140
2019-11-17 15:00 2.52 398 7500 (2010) 129 (2002) 804 134 163 184 228 582 978 2140
2019-11-17 14:00 2.52 398 7500 (2010) 129 (2002) 804 134 163 184 228 582 978 2140
2019-11-17 13:00 2.52 398 7500 (2010) 129 (2002) 804 134 163 184 228 582 978 2140
2019-11-17 12:00 2.51 395 7500 (2010) 129 (2002) 804 134 163 184 228 582 978 2140
2019-11-17 11:00 2.55 409 7500 (2010) 129 (2002) 804 134 163 184 228 582 978 2140
2019-11-17 10:00 2.55 409 7500 (2010) 129 (2002) 804 134 163 184 228 582 978 2140
2019-11-17 09:00 2.53 402 7500 (2010) 129 (2002) 804 134 163 184 228 582 978 2140
2019-11-17 08:00 2.54 405 7500 (2010) 129 (2002) 804 134 163 184 228 582 978 2140
2019-11-17 07:00 2.52 398 7500 (2010) 129 (2002) 804 134 163 184 228 582 978 2140
2019-11-17 06:00 2.55 409 7500 (2010) 129 (2002) 804 134 163 184 228 582 978 2140
2019-11-17 05:00 2.55 409 7500 (2010) 129 (2002) 804 134 163 184 228 582 978 2140
2019-11-17 04:00 2.54 405 7500 (2010) 129 (2002) 804 134 163 184 228 582 978 2140
2019-11-17 03:00 2.56 412 7500 (2010) 129 (2002) 804 134 163 184 228 582 978 2140
2019-11-17 02:00 2.57 416 7500 (2010) 129 (2002) 804 134 163 184 228 582 978 2140
2019-11-17 01:00 2.57 416 7500 (2010) 129 (2002) 804 134 163 184 228 582 978 2140
2019-11-17 00:00 2.56 412 7500 (2010) 129 (2002) 804 134 163 184 228 582 978 2140
2019-11-16 23:00 2.55 409 2530 (2006) 130 (2002) 437 135 164 186 223 311 396 1610
2019-11-16 22:00 2.59 423 2530 (2006) 130 (2002) 437 135 164 186 223 311 396 1610
2019-11-16 21:00 2.59 423 2530 (2006) 130 (2002) 437 135 164 186 223 311 396 1610
2019-11-16 20:00 2.58 420 2530 (2006) 130 (2002) 437 135 164 186 223 311 396 1610
2019-11-16 19:00 2.58 420 2530 (2006) 130 (2002) 437 135 164 186 223 311 396 1610
2019-11-16 18:00 2.58 420 2530 (2006) 130 (2002) 437 135 164 186 223 311 396 1610
2019-11-16 17:00 2.60 427 2530 (2006) 130 (2002) 437 135 164 186 223 311 396 1610
2019-11-16 16:00 2.58 420 2530 (2006) 130 (2002) 437 135 164 186 223 311 396 1610
2019-11-16 15:00 2.59 423 2530 (2006) 130 (2002) 437 135 164 186 223 311 396 1610
2019-11-16 14:00 2.61 431 2530 (2006) 130 (2002) 437 135 164 186 223 311 396 1610
2019-11-16 13:00 2.59 423 2530 (2006) 130 (2002) 437 135 164 186 223 311 396 1610
2019-11-16 12:00 2.64 442 2530 (2006) 130 (2002) 437 135 164 186 223 311 396 1610
2019-11-16 11:00 2.64 442 2530 (2006) 130 (2002) 437 135 164 186 223 311 396 1610
2019-11-16 10:00 2.63 438 2530 (2006) 130 (2002) 437 135 164 186 223 311 396 1610
2019-11-16 09:00 2.63 438 2530 (2006) 130 (2002) 437 135 164 186 223 311 396 1610
2019-11-16 08:00 2.62 434 2530 (2006) 130 (2002) 437 135 164 186 223 311 396 1610
2019-11-16 07:00 2.62 434 2530 (2006) 130 (2002) 437 135 164 186 223 311 396 1610
2019-11-16 06:00 2.60 427 2530 (2006) 130 (2002) 437 135 164 186 223 311 396 1610
2019-11-16 05:00 2.62 434 2530 (2006) 130 (2002) 437 135 164 186 223 311 396 1610
2019-11-16 04:00 2.63 438 2530 (2006) 130 (2002) 437 135 164 186 223 311 396 1610
2019-11-16 03:00 2.64 442 2530 (2006) 130 (2002) 437 135 164 186 223 311 396 1610
2019-11-16 02:00 2.64 442 2530 (2006) 130 (2002) 437 135 164 186 223 311 396 1610
2019-11-16 01:00 2.63 438 2530 (2006) 130 (2002) 437 135 164 186 223 311 396 1610
2019-11-16 00:00 2.63 438 2530 (2006) 130 (2002) 437 135 164 186 223 311 396 1610
2019-11-15 23:00 2.64 442 686 (2005) 129 (2002) 257 134 166 190 221 266 298 538
2019-11-15 22:00 2.64 442 686 (2005) 129 (2002) 257 134 166 190 221 266 298 538
2019-11-15 21:00 2.63 438 686 (2005) 129 (2002) 257 134 166 190 221 266 298 538
2019-11-15 20:00 2.65 445 686 (2005) 129 (2002) 257 134 166 190 221 266 298 538
2019-11-15 19:00 2.68 457 686 (2005) 129 (2002) 257 134 166 190 221 266 298 538
2019-11-15 18:00 2.67 453 686 (2005) 129 (2002) 257 134 166 190 221 266 298 538
2019-11-15 17:00 2.67 453 686 (2005) 129 (2002) 257 134 166 190 221 266 298 538
2019-11-15 16:00 2.70 465 686 (2005) 129 (2002) 257 134 166 190 221 266 298 538
2019-11-15 15:00 2.67 453 686 (2005) 129 (2002) 257 134 166 190 221 266 298 538
2019-11-15 14:00 2.68 457 686 (2005) 129 (2002) 257 134 166 190 221 266 298 538
2019-11-15 13:00 2.66 449 686 (2005) 129 (2002) 257 134 166 190 221 266 298 538
2019-11-15 12:00 2.68 457 686 (2005) 129 (2002) 257 134 166 190 221 266 298 538
2019-11-15 11:00 2.69 461 686 (2005) 129 (2002) 257 134 166 190 221 266 298 538
2019-11-15 10:00 2.66 449 686 (2005) 129 (2002) 257 134 166 190 221 266 298 538
2019-11-15 09:00 2.68 457 686 (2005) 129 (2002) 257 134 166 190 221 266 298 538
2019-11-15 08:00 2.69 461 686 (2005) 129 (2002) 257 134 166 190 221 266 298 538
2019-11-15 07:00 2.69 461 686 (2005) 129 (2002) 257 134 166 190 221 266 298 538
2019-11-15 06:00 2.71 469 686 (2005) 129 (2002) 257 134 166 190 221 266 298 538
2019-11-15 05:00 2.69 461 686 (2005) 129 (2002) 257 134 166 190 221 266 298 538
2019-11-15 04:00 2.68 457 686 (2005) 129 (2002) 257 134 166 190 221 266 298 538
2019-11-15 03:00 2.67 453 686 (2005) 129 (2002) 257 134 166 190 221 266 298 538
2019-11-15 02:00 2.75 484 686 (2005) 129 (2002) 257 134 166 190 221 266 298 538
2019-11-15 01:00 2.70 465 686 (2005) 129 (2002) 257 134 166 190 221 266 298 538
2019-11-15 00:00 2.73 476 686 (2005) 129 (2002) 257 134 166 190 221 266 298 538
2019-11-14 23:00 2.72 472 896 (2005) 129 (2002) 265 136 166 170 214 268 283 579
2019-11-14 22:00 2.71 469 896 (2005) 129 (2002) 265 136 166 170 214 268 283 579
2019-11-14 21:00 2.75 484 896 (2005) 129 (2002) 265 136 166 170 214 268 283 579
2019-11-14 20:00 2.75 484 896 (2005) 129 (2002) 265 136 166 170 214 268 283 579
2019-11-14 19:00 2.74 480 896 (2005) 129 (2002) 265 136 166 170 214 268 283 579
2019-11-14 18:00 2.73 476 896 (2005) 129 (2002) 265 136 166 170 214 268 283 579
2019-11-14 17:00 2.73 476 896 (2005) 129 (2002) 265 136 166 170 214 268 283 579
2019-11-14 16:00 2.76 488 896 (2005) 129 (2002) 265 136 166 170 214 268 283 579
2019-11-14 15:00 2.73 476 896 (2005) 129 (2002) 265 136 166 170 214 268 283 579
2019-11-14 14:00 2.75 484 896 (2005) 129 (2002) 265 136 166 170 214 268 283 579
2019-11-14 13:00 2.74 480 896 (2005) 129 (2002) 265 136 166 170 214 268 283 579
2019-11-14 12:00 2.76 488 896 (2005) 129 (2002) 265 136 166 170 214 268 283 579
2019-11-14 11:00 2.76 488 896 (2005) 129 (2002) 265 136 166 170 214 268 283 579
2019-11-14 10:00 2.76 488 896 (2005) 129 (2002) 265 136 166 170 214 268 283 579
2019-11-14 09:00 2.77 492 896 (2005) 129 (2002) 265 136 166 170 214 268 283 579
2019-11-14 08:00 2.75 484 896 (2005) 129 (2002) 265 136 166 170 214 268 283 579
2019-11-14 07:00 2.78 497 896 (2005) 129 (2002) 265 136 166 170 214 268 283 579
2019-11-14 06:00 2.81 509 896 (2005) 129 (2002) 265 136 166 170 214 268 283 579
2019-11-14 05:00 2.78 497 896 (2005) 129 (2002) 265 136 166 170 214 268 283 579
2019-11-14 04:00 2.80 505 896 (2005) 129 (2002) 265 136 166 170 214 268 283 579
2019-11-14 03:00 2.78 497 896 (2005) 129 (2002) 265 136 166 170 214 268 283 579
2019-11-14 02:00 2.81 509 896 (2005) 129 (2002) 265 136 166 170 214 268 283 579
2019-11-14 01:00 2.82 513 896 (2005) 129 (2002) 265 136 166 170 214 268 283 579
2019-11-14 00:00 2.82 513 896 (2005) 129 (2002) 265 136 166 170 214 268 283 579

A total of 189 rows are displayed for years 2001 through 2018.

Trips for Big Piney River (Missouri), Fort Leonard Wood (06930060)

DateStartEndDistanceConditionDischargeHeightFishingDetails

A total of 0 rows are displayed.

Condition Descriptions

Fishing Conditions

Fish Species

Notes

Classic Trip List

The classic River Trips application is still available for use. It is updated with the new system using a data retrofit. It is no longer maintained. The original River Trips application is no longer updated (as of 1 Dec 2016) but can be checked for errors or for the condition of the data before it was converted to the new system.